sensor_id;sensor_type;location;lat;lon;timestamp;P1;durP1;ratioP1;P2;durP2;ratioP2
31347;SDS011;21711;49.708;18.568;2023-12-20T00:02:21;1.88;;;1.05;;
31347;SDS011;21711;49.708;18.568;2023-12-20T00:04:49;1.48;;;1.00;;
31347;SDS011;21711;49.708;18.568;2023-12-20T00:07:16;2.55;;;0.93;;
31347;SDS011;21711;49.708;18.568;2023-12-20T00:09:44;1.35;;;0.60;;
31347;SDS011;21711;49.708;18.568;2023-12-20T00:12:11;3.08;;;1.27;;
31347;SDS011;21711;49.708;18.568;2023-12-20T00:14:38;1.88;;;1.00;;
31347;SDS011;21711;49.708;18.568;2023-12-20T00:17:06;1.67;;;0.88;;
31347;SDS011;21711;49.708;18.568;2023-12-20T00:19:34;2.78;;;1.02;;
31347;SDS011;21711;49.708;18.568;2023-12-20T00:22:01;1.58;;;0.65;;
31347;SDS011;21711;49.708;18.568;2023-12-20T00:24:29;2.63;;;1.05;;
31347;SDS011;21711;49.708;18.568;2023-12-20T00:26:56;2.60;;;1.10;;
31347;SDS011;21711;49.708;18.568;2023-12-20T00:29:23;2.20;;;0.82;;
31347;SDS011;21711;49.708;18.568;2023-12-20T00:31:50;1.17;;;0.60;;
31347;SDS011;21711;49.708;18.568;2023-12-20T00:34:18;1.33;;;0.77;;
31347;SDS011;21711;49.708;18.568;2023-12-20T00:36:45;2.85;;;0.90;;
31347;SDS011;21711;49.708;18.568;2023-12-20T00:39:13;2.90;;;0.90;;
31347;SDS011;21711;49.708;18.568;2023-12-20T00:41:41;2.00;;;0.88;;
31347;SDS011;21711;49.708;18.568;2023-12-20T00:44:08;1.90;;;0.93;;
31347;SDS011;21711;49.708;18.568;2023-12-20T00:46:35;3.08;;;0.98;;
31347;SDS011;21711;49.708;18.568;2023-12-20T00:49:03;0.95;;;0.52;;
31347;SDS011;21711;49.708;18.568;2023-12-20T00:51:30;1.98;;;0.70;;
31347;SDS011;21711;49.708;18.568;2023-12-20T00:53:57;1.42;;;0.93;;
31347;SDS011;21711;49.708;18.568;2023-12-20T00:56:25;2.40;;;1.23;;
31347;SDS011;21711;49.708;18.568;2023-12-20T00:58:52;3.17;;;1.40;;
31347;SDS011;21711;49.708;18.568;2023-12-20T01:01:19;2.03;;;0.82;;
31347;SDS011;21711;49.708;18.568;2023-12-20T01:03:48;5.00;;;1.05;;
31347;SDS011;21711;49.708;18.568;2023-12-20T01:06:18;2.85;;;0.93;;
31347;SDS011;21711;49.708;18.568;2023-12-20T01:08:45;1.52;;;0.70;;
31347;SDS011;21711;49.708;18.568;2023-12-20T01:11:13;3.60;;;1.10;;
31347;SDS011;21711;49.708;18.568;2023-12-20T01:13:40;1.30;;;0.60;;
31347;SDS011;21711;49.708;18.568;2023-12-20T01:16:11;2.30;;;1.05;;
31347;SDS011;21711;49.708;18.568;2023-12-20T01:18:38;3.83;;;1.00;;
31347;SDS011;21711;49.708;18.568;2023-12-20T01:21:06;1.67;;;0.70;;
31347;SDS011;21711;49.708;18.568;2023-12-20T01:23:33;2.53;;;0.82;;
31347;SDS011;21711;49.708;18.568;2023-12-20T01:26:00;2.25;;;1.30;;
31347;SDS011;21711;49.708;18.568;2023-12-20T01:28:29;4.10;;;1.02;;
31347;SDS011;21711;49.708;18.568;2023-12-20T01:30:57;2.70;;;1.17;;
31347;SDS011;21711;49.708;18.568;2023-12-20T01:33:24;3.95;;;1.65;;
31347;SDS011;21711;49.708;18.568;2023-12-20T01:35:52;5.82;;;2.85;;
31347;SDS011;21711;49.708;18.568;2023-12-20T01:38:19;5.97;;;3.53;;
31347;SDS011;21711;49.708;18.568;2023-12-20T01:40:46;7.68;;;3.67;;
31347;SDS011;21711;49.708;18.568;2023-12-20T01:43:14;7.00;;;3.95;;
31347;SDS011;21711;49.708;18.568;2023-12-20T01:45:41;8.57;;;3.75;;
31347;SDS011;21711;49.708;18.568;2023-12-20T01:48:10;7.80;;;3.60;;
31347;SDS011;21711;49.708;18.568;2023-12-20T01:50:38;7.68;;;3.42;;
31347;SDS011;21711;49.708;18.568;2023-12-20T01:53:06;7.72;;;3.70;;
31347;SDS011;21711;49.708;18.568;2023-12-20T01:55:36;6.10;;;3.80;;
31347;SDS011;21711;49.708;18.568;2023-12-20T01:58:09;7.28;;;3.78;;
31347;SDS011;21711;49.708;18.568;2023-12-20T02:00:38;9.00;;;4.07;;
31347;SDS011;21711;49.708;18.568;2023-12-20T02:03:06;7.65;;;4.15;;
31347;SDS011;21711;49.708;18.568;2023-12-20T02:05:35;7.35;;;4.32;;
31347;SDS011;21711;49.708;18.568;2023-12-20T02:08:03;8.20;;;4.45;;
31347;SDS011;21711;49.708;18.568;2023-12-20T02:10:32;8.48;;;4.82;;
31347;SDS011;21711;49.708;18.568;2023-12-20T02:12:59;7.68;;;4.15;;
31347;SDS011;21711;49.708;18.568;2023-12-20T02:15:27;7.63;;;4.70;;
31347;SDS011;21711;49.708;18.568;2023-12-20T02:17:54;7.25;;;3.85;;
31347;SDS011;21711;49.708;18.568;2023-12-20T02:20:22;9.23;;;4.70;;
31347;SDS011;21711;49.708;18.568;2023-12-20T02:22:49;8.88;;;4.18;;
31347;SDS011;21711;49.708;18.568;2023-12-20T02:25:16;8.10;;;4.38;;
31347;SDS011;21711;49.708;18.568;2023-12-20T02:27:44;11.80;;;4.57;;
31347;SDS011;21711;49.708;18.568;2023-12-20T02:30:12;4.80;;;2.20;;
31347;SDS011;21711;49.708;18.568;2023-12-20T02:32:39;6.88;;;2.60;;
31347;SDS011;21711;49.708;18.568;2023-12-20T02:35:06;1.98;;;1.20;;
31347;SDS011;21711;49.708;18.568;2023-12-20T02:37:34;2.20;;;0.88;;
31347;SDS011;21711;49.708;18.568;2023-12-20T02:40:01;2.47;;;0.70;;
31347;SDS011;21711;49.708;18.568;2023-12-20T02:42:30;2.05;;;0.82;;
31347;SDS011;21711;49.708;18.568;2023-12-20T02:44:58;1.25;;;0.52;;
31347;SDS011;21711;49.708;18.568;2023-12-20T02:47:25;2.22;;;0.88;;
31347;SDS011;21711;49.708;18.568;2023-12-20T02:49:53;1.77;;;0.57;;
31347;SDS011;21711;49.708;18.568;2023-12-20T02:52:22;1.27;;;0.57;;
31347;SDS011;21711;49.708;18.568;2023-12-20T02:54:50;1.35;;;0.73;;
31347;SDS011;21711;49.708;18.568;2023-12-20T02:57:18;1.25;;;0.55;;
31347;SDS011;21711;49.708;18.568;2023-12-20T02:59:45;2.47;;;1.00;;
31347;SDS011;21711;49.708;18.568;2023-12-20T03:02:13;1.40;;;0.60;;
31347;SDS011;21711;49.708;18.568;2023-12-20T03:04:40;1.45;;;0.55;;
31347;SDS011;21711;49.708;18.568;2023-12-20T03:07:08;2.45;;;1.00;;
31347;SDS011;21711;49.708;18.568;2023-12-20T03:09:35;2.70;;;0.77;;
31347;SDS011;21711;49.708;18.568;2023-12-20T03:12:23;1.58;;;0.50;;
31347;SDS011;21711;49.708;18.568;2023-12-20T03:14:50;1.83;;;0.80;;
31347;SDS011;21711;49.708;18.568;2023-12-20T03:17:18;1.85;;;0.98;;
31347;SDS011;21711;49.708;18.568;2023-12-20T03:19:46;1.92;;;0.50;;
31347;SDS011;21711;49.708;18.568;2023-12-20T03:22:13;2.45;;;0.80;;
31347;SDS011;21711;49.708;18.568;2023-12-20T03:24:41;3.38;;;0.93;;
31347;SDS011;21711;49.708;18.568;2023-12-20T03:27:08;1.92;;;0.82;;
31347;SDS011;21711;49.708;18.568;2023-12-20T03:29:35;2.55;;;0.90;;
31347;SDS011;21711;49.708;18.568;2023-12-20T03:32:03;3.90;;;0.80;;
31347;SDS011;21711;49.708;18.568;2023-12-20T03:34:31;1.98;;;0.80;;
31347;SDS011;21711;49.708;18.568;2023-12-20T03:36:59;1.63;;;0.75;;
31347;SDS011;21711;49.708;18.568;2023-12-20T03:39:26;2.13;;;0.80;;
31347;SDS011;21711;49.708;18.568;2023-12-20T03:41:53;1.25;;;0.75;;
31347;SDS011;21711;49.708;18.568;2023-12-20T03:44:21;1.63;;;0.70;;
31347;SDS011;21711;49.708;18.568;2023-12-20T03:46:48;1.50;;;0.68;;
31347;SDS011;21711;49.708;18.568;2023-12-20T03:49:16;1.95;;;0.85;;
31347;SDS011;21711;49.708;18.568;2023-12-20T03:51:44;4.18;;;1.05;;
31347;SDS011;21711;49.708;18.568;2023-12-20T03:54:11;2.58;;;1.20;;
31347;SDS011;21711;49.708;18.568;2023-12-20T03:56:39;2.40;;;0.68;;
31347;SDS011;21711;49.708;18.568;2023-12-20T03:59:06;5.28;;;1.42;;
31347;SDS011;21711;49.708;18.568;2023-12-20T04:01:33;1.63;;;0.90;;
31347;SDS011;21711;49.708;18.568;2023-12-20T04:04:01;2.22;;;0.90;;
31347;SDS011;21711;49.708;18.568;2023-12-20T04:06:29;2.67;;;1.00;;
31347;SDS011;21711;49.708;18.568;2023-12-20T04:08:57;3.22;;;1.30;;
31347;SDS011;21711;49.708;18.568;2023-12-20T04:11:24;3.20;;;1.25;;
31347;SDS011;21711;49.708;18.568;2023-12-20T04:13:52;2.90;;;1.30;;
31347;SDS011;21711;49.708;18.568;2023-12-20T04:16:19;2.70;;;1.30;;
31347;SDS011;21711;49.708;18.568;2023-12-20T04:18:46;2.67;;;1.58;;
31347;SDS011;21711;49.708;18.568;2023-12-20T04:21:14;2.63;;;1.15;;
31347;SDS011;21711;49.708;18.568;2023-12-20T04:23:41;2.65;;;1.17;;
31347;SDS011;21711;49.708;18.568;2023-12-20T04:26:09;3.72;;;1.35;;
31347;SDS011;21711;49.708;18.568;2023-12-20T04:28:37;4.50;;;1.40;;
31347;SDS011;21711;49.708;18.568;2023-12-20T04:31:04;2.38;;;1.20;;
31347;SDS011;21711;49.708;18.568;2023-12-20T04:33:31;3.10;;;1.75;;
31347;SDS011;21711;49.708;18.568;2023-12-20T04:35:59;3.20;;;1.38;;
31347;SDS011;21711;49.708;18.568;2023-12-20T04:38:26;4.28;;;1.52;;
31347;SDS011;21711;49.708;18.568;2023-12-20T04:40:54;5.78;;;2.88;;
31347;SDS011;21711;49.708;18.568;2023-12-20T04:43:21;13.52;;;6.95;;
31347;SDS011;21711;49.708;18.568;2023-12-20T04:45:49;12.18;;;6.78;;
31347;SDS011;21711;49.708;18.568;2023-12-20T04:48:16;13.68;;;6.50;;
31347;SDS011;21711;49.708;18.568;2023-12-20T04:50:44;12.80;;;6.18;;
31347;SDS011;21711;49.708;18.568;2023-12-20T04:53:11;11.88;;;5.97;;
31347;SDS011;21711;49.708;18.568;2023-12-20T04:55:39;11.82;;;6.30;;
31347;SDS011;21711;49.708;18.568;2023-12-20T04:58:06;14.38;;;6.68;;
31347;SDS011;21711;49.708;18.568;2023-12-20T05:00:33;13.32;;;6.25;;
31347;SDS011;21711;49.708;18.568;2023-12-20T05:03:01;12.85;;;6.03;;
31347;SDS011;21711;49.708;18.568;2023-12-20T05:05:28;14.80;;;7.32;;
31347;SDS011;21711;49.708;18.568;2023-12-20T05:07:55;11.30;;;6.15;;
31347;SDS011;21711;49.708;18.568;2023-12-20T05:10:23;14.10;;;7.35;;
31347;SDS011;21711;49.708;18.568;2023-12-20T05:12:50;13.18;;;7.13;;
31347;SDS011;21711;49.708;18.568;2023-12-20T05:15:18;13.60;;;6.93;;
31347;SDS011;21711;49.708;18.568;2023-12-20T05:17:45;13.63;;;6.90;;
31347;SDS011;21711;49.708;18.568;2023-12-20T05:20:13;14.60;;;6.80;;
31347;SDS011;21711;49.708;18.568;2023-12-20T05:22:41;15.35;;;7.13;;
31347;SDS011;21711;49.708;18.568;2023-12-20T05:25:08;14.93;;;7.47;;
31347;SDS011;21711;49.708;18.568;2023-12-20T05:27:36;12.02;;;6.15;;
31347;SDS011;21711;49.708;18.568;2023-12-20T05:30:03;11.88;;;6.95;;
31347;SDS011;21711;49.708;18.568;2023-12-20T05:32:31;16.35;;;7.82;;
31347;SDS011;21711;49.708;18.568;2023-12-20T05:34:59;15.75;;;7.63;;
31347;SDS011;21711;49.708;18.568;2023-12-20T05:37:26;15.25;;;7.50;;
31347;SDS011;21711;49.708;18.568;2023-12-20T05:39:54;14.10;;;7.22;;
31347;SDS011;21711;49.708;18.568;2023-12-20T05:42:21;16.27;;;7.68;;
31347;SDS011;21711;49.708;18.568;2023-12-20T05:44:49;15.10;;;7.97;;
31347;SDS011;21711;49.708;18.568;2023-12-20T05:47:20;16.30;;;8.18;;
31347;SDS011;21711;49.708;18.568;2023-12-20T05:49:48;14.77;;;7.25;;
31347;SDS011;21711;49.708;18.568;2023-12-20T05:52:16;11.88;;;5.82;;
31347;SDS011;21711;49.708;18.568;2023-12-20T05:54:44;11.00;;;6.65;;
31347;SDS011;21711;49.708;18.568;2023-12-20T05:57:12;9.70;;;4.32;;
31347;SDS011;21711;49.708;18.568;2023-12-20T05:59:39;8.13;;;4.03;;
31347;SDS011;21711;49.708;18.568;2023-12-20T06:02:06;7.57;;;3.88;;
31347;SDS011;21711;49.708;18.568;2023-12-20T06:04:34;8.02;;;4.32;;
31347;SDS011;21711;49.708;18.568;2023-12-20T06:07:02;9.25;;;4.47;;
31347;SDS011;21711;49.708;18.568;2023-12-20T06:09:30;9.60;;;4.18;;
31347;SDS011;21711;49.708;18.568;2023-12-20T06:11:57;10.77;;;4.82;;
31347;SDS011;21711;49.708;18.568;2023-12-20T06:14:25;12.05;;;5.43;;
31347;SDS011;21711;49.708;18.568;2023-12-20T06:16:52;17.33;;;6.32;;
31347;SDS011;21711;49.708;18.568;2023-12-20T06:19:20;13.63;;;5.75;;
31347;SDS011;21711;49.708;18.568;2023-12-20T06:21:47;11.90;;;5.50;;
31347;SDS011;21711;49.708;18.568;2023-12-20T06:24:15;10.30;;;5.85;;
31347;SDS011;21711;49.708;18.568;2023-12-20T06:26:42;13.55;;;6.85;;
31347;SDS011;21711;49.708;18.568;2023-12-20T06:29:10;14.88;;;6.85;;
31347;SDS011;21711;49.708;18.568;2023-12-20T06:31:38;16.60;;;6.88;;
31347;SDS011;21711;49.708;18.568;2023-12-20T06:34:06;10.95;;;6.38;;
31347;SDS011;21711;49.708;18.568;2023-12-20T06:36:33;16.42;;;6.97;;
31347;SDS011;21711;49.708;18.568;2023-12-20T06:39:00;15.00;;;6.72;;
31347;SDS011;21711;49.708;18.568;2023-12-20T06:41:28;9.80;;;5.30;;
31347;SDS011;21711;49.708;18.568;2023-12-20T06:43:55;10.15;;;5.53;;
31347;SDS011;21711;49.708;18.568;2023-12-20T06:46:23;9.57;;;4.63;;
31347;SDS011;21711;49.708;18.568;2023-12-20T06:48:50;9.95;;;5.15;;
31347;SDS011;21711;49.708;18.568;2023-12-20T06:51:18;9.48;;;4.93;;
31347;SDS011;21711;49.708;18.568;2023-12-20T06:53:46;12.73;;;5.80;;
31347;SDS011;21711;49.708;18.568;2023-12-20T06:56:14;10.07;;;5.35;;
31347;SDS011;21711;49.708;18.568;2023-12-20T06:58:45;10.80;;;5.30;;
31347;SDS011;21711;49.708;18.568;2023-12-20T07:01:13;9.30;;;5.07;;
31347;SDS011;21711;49.708;18.568;2023-12-20T07:03:43;8.45;;;4.35;;
31347;SDS011;21711;49.708;18.568;2023-12-20T07:06:10;10.75;;;5.53;;
31347;SDS011;21711;49.708;18.568;2023-12-20T07:08:37;11.45;;;4.95;;
31347;SDS011;21711;49.708;18.568;2023-12-20T07:11:06;10.50;;;5.28;;
31347;SDS011;21711;49.708;18.568;2023-12-20T07:13:33;11.15;;;5.55;;
31347;SDS011;21711;49.708;18.568;2023-12-20T07:16:01;9.48;;;5.97;;
31347;SDS011;21711;49.708;18.568;2023-12-20T07:18:29;10.50;;;5.10;;
31347;SDS011;21711;49.708;18.568;2023-12-20T07:20:56;11.02;;;5.93;;
31347;SDS011;21711;49.708;18.568;2023-12-20T07:23:24;9.43;;;4.82;;
31347;SDS011;21711;49.708;18.568;2023-12-20T07:25:53;8.02;;;4.60;;
31347;SDS011;21711;49.708;18.568;2023-12-20T07:28:20;11.48;;;4.57;;
31347;SDS011;21711;49.708;18.568;2023-12-20T07:30:47;13.90;;;5.13;;
31347;SDS011;21711;49.708;18.568;2023-12-20T07:33:15;7.88;;;4.30;;
31347;SDS011;21711;49.708;18.568;2023-12-20T07:35:42;9.10;;;4.13;;
31347;SDS011;21711;49.708;18.568;2023-12-20T07:38:12;9.80;;;3.97;;
31347;SDS011;21711;49.708;18.568;2023-12-20T07:40:39;7.43;;;3.72;;
31347;SDS011;21711;49.708;18.568;2023-12-20T07:43:07;9.43;;;4.10;;
31347;SDS011;21711;49.708;18.568;2023-12-20T07:45:35;8.48;;;3.80;;
31347;SDS011;21711;49.708;18.568;2023-12-20T07:48:02;8.25;;;4.22;;
31347;SDS011;21711;49.708;18.568;2023-12-20T07:50:31;9.13;;;4.05;;
31347;SDS011;21711;49.708;18.568;2023-12-20T07:52:59;7.80;;;3.78;;
31347;SDS011;21711;49.708;18.568;2023-12-20T07:55:27;9.55;;;5.22;;
31347;SDS011;21711;49.708;18.568;2023-12-20T07:57:57;6.97;;;3.97;;
31347;SDS011;21711;49.708;18.568;2023-12-20T08:00:26;7.35;;;3.65;;
31347;SDS011;21711;49.708;18.568;2023-12-20T08:02:54;7.85;;;4.07;;
31347;SDS011;21711;49.708;18.568;2023-12-20T08:05:22;8.57;;;4.07;;
31347;SDS011;21711;49.708;18.568;2023-12-20T08:07:49;8.18;;;4.45;;
31347;SDS011;21711;49.708;18.568;2023-12-20T08:10:16;8.80;;;4.53;;
31347;SDS011;21711;49.708;18.568;2023-12-20T08:12:46;9.65;;;4.75;;
31347;SDS011;21711;49.708;18.568;2023-12-20T08:15:13;8.50;;;4.90;;
31347;SDS011;21711;49.708;18.568;2023-12-20T08:17:41;7.93;;;3.78;;
31347;SDS011;21711;49.708;18.568;2023-12-20T08:20:09;8.02;;;4.28;;
31347;SDS011;21711;49.708;18.568;2023-12-20T08:22:39;8.52;;;4.10;;
31347;SDS011;21711;49.708;18.568;2023-12-20T08:25:06;6.45;;;3.35;;
31347;SDS011;21711;49.708;18.568;2023-12-20T08:27:39;7.72;;;3.78;;
31347;SDS011;21711;49.708;18.568;2023-12-20T08:30:08;7.88;;;3.55;;
31347;SDS011;21711;49.708;18.568;2023-12-20T08:32:36;5.78;;;3.10;;
31347;SDS011;21711;49.708;18.568;2023-12-20T08:35:04;10.23;;;4.25;;
31347;SDS011;21711;49.708;18.568;2023-12-20T08:37:32;7.07;;;3.33;;
31347;SDS011;21711;49.708;18.568;2023-12-20T08:39:59;7.25;;;3.47;;
31347;SDS011;21711;49.708;18.568;2023-12-20T08:42:26;6.97;;;3.00;;
31347;SDS011;21711;49.708;18.568;2023-12-20T08:44:57;7.28;;;3.40;;
31347;SDS011;21711;49.708;18.568;2023-12-20T08:47:25;6.78;;;3.47;;
31347;SDS011;21711;49.708;18.568;2023-12-20T08:49:52;7.07;;;3.30;;
31347;SDS011;21711;49.708;18.568;2023-12-20T08:52:24;5.90;;;3.58;;
31347;SDS011;21711;49.708;18.568;2023-12-20T08:54:56;8.88;;;3.20;;
31347;SDS011;21711;49.708;18.568;2023-12-20T08:57:23;6.22;;;2.80;;
31347;SDS011;21711;49.708;18.568;2023-12-20T08:59:51;6.13;;;3.58;;
31347;SDS011;21711;49.708;18.568;2023-12-20T09:02:19;6.68;;;3.30;;
31347;SDS011;21711;49.708;18.568;2023-12-20T09:04:46;10.10;;;3.75;;
31347;SDS011;21711;49.708;18.568;2023-12-20T09:07:20;5.72;;;3.15;;
31347;SDS011;21711;49.708;18.568;2023-12-20T09:09:53;6.97;;;2.92;;
31347;SDS011;21711;49.708;18.568;2023-12-20T09:12:20;6.35;;;3.25;;
31347;SDS011;21711;49.708;18.568;2023-12-20T09:14:48;5.95;;;3.58;;
31347;SDS011;21711;49.708;18.568;2023-12-20T09:17:17;6.72;;;3.00;;
31347;SDS011;21711;49.708;18.568;2023-12-20T09:19:45;4.80;;;2.92;;
31347;SDS011;21711;49.708;18.568;2023-12-20T09:22:13;6.43;;;3.03;;
31347;SDS011;21711;49.708;18.568;2023-12-20T09:24:40;10.05;;;4.18;;
31347;SDS011;21711;49.708;18.568;2023-12-20T09:27:08;7.93;;;3.53;;
31347;SDS011;21711;49.708;18.568;2023-12-20T09:29:35;7.35;;;3.60;;
31347;SDS011;21711;49.708;18.568;2023-12-20T09:32:03;7.60;;;3.05;;
31347;SDS011;21711;49.708;18.568;2023-12-20T09:34:30;5.88;;;3.05;;
31347;SDS011;21711;49.708;18.568;2023-12-20T09:36:58;6.05;;;2.97;;
31347;SDS011;21711;49.708;18.568;2023-12-20T09:39:25;7.22;;;3.20;;
31347;SDS011;21711;49.708;18.568;2023-12-20T09:42:06;6.75;;;3.22;;
31347;SDS011;21711;49.708;18.568;2023-12-20T09:47:05;7.32;;;2.92;;
31347;SDS011;21711;49.708;18.568;2023-12-20T09:49:33;4.15;;;2.55;;
31347;SDS011;21711;49.708;18.568;2023-12-20T09:52:02;7.05;;;2.88;;
31347;SDS011;21711;49.708;18.568;2023-12-20T09:54:31;6.03;;;2.95;;
31347;SDS011;21711;49.708;18.568;2023-12-20T09:56:59;6.65;;;3.20;;
31347;SDS011;21711;49.708;18.568;2023-12-20T09:59:26;6.15;;;3.30;;
31347;SDS011;21711;49.708;18.568;2023-12-20T10:01:54;6.97;;;3.30;;
31347;SDS011;21711;49.708;18.568;2023-12-20T10:04:26;5.50;;;3.03;;
31347;SDS011;21711;49.708;18.568;2023-12-20T10:06:56;4.93;;;2.60;;
31347;SDS011;21711;49.708;18.568;2023-12-20T10:09:24;5.78;;;3.22;;
31347;SDS011;21711;49.708;18.568;2023-12-20T10:11:54;6.00;;;2.97;;
31347;SDS011;21711;49.708;18.568;2023-12-20T10:14:21;5.78;;;3.40;;
31347;SDS011;21711;49.708;18.568;2023-12-20T10:16:50;7.03;;;3.25;;
31347;SDS011;21711;49.708;18.568;2023-12-20T10:19:19;5.97;;;2.83;;
31347;SDS011;21711;49.708;18.568;2023-12-20T10:21:47;7.13;;;3.08;;
31347;SDS011;21711;49.708;18.568;2023-12-20T10:24:17;5.65;;;2.75;;
31347;SDS011;21711;49.708;18.568;2023-12-20T10:26:45;6.50;;;3.03;;
31347;SDS011;21711;49.708;18.568;2023-12-20T10:29:12;6.25;;;3.65;;
31347;SDS011;21711;49.708;18.568;2023-12-20T10:31:40;4.85;;;2.72;;
31347;SDS011;21711;49.708;18.568;2023-12-20T10:34:09;8.43;;;3.42;;
31347;SDS011;21711;49.708;18.568;2023-12-20T10:36:37;5.35;;;3.35;;
31347;SDS011;21711;49.708;18.568;2023-12-20T10:39:04;6.38;;;3.08;;
31347;SDS011;21711;49.708;18.568;2023-12-20T10:41:36;9.60;;;3.40;;
31347;SDS011;21711;49.708;18.568;2023-12-20T10:44:08;4.80;;;2.88;;
31347;SDS011;21711;49.708;18.568;2023-12-20T10:46:37;4.85;;;2.72;;
31347;SDS011;21711;49.708;18.568;2023-12-20T10:49:07;4.35;;;2.90;;
31347;SDS011;21711;49.708;18.568;2023-12-20T10:51:36;5.57;;;3.03;;
31347;SDS011;21711;49.708;18.568;2023-12-20T10:54:05;8.23;;;3.25;;
31347;SDS011;21711;49.708;18.568;2023-12-20T10:56:33;5.30;;;2.85;;
31347;SDS011;21711;49.708;18.568;2023-12-20T10:59:02;6.55;;;2.50;;
31347;SDS011;21711;49.708;18.568;2023-12-20T11:01:32;4.43;;;2.58;;
31347;SDS011;21711;49.708;18.568;2023-12-20T11:04:00;4.13;;;2.30;;
31347;SDS011;21711;49.708;18.568;2023-12-20T11:06:33;4.72;;;2.33;;
31347;SDS011;21711;49.708;18.568;2023-12-20T11:14:50;2.97;;;1.60;;
31347;SDS011;21711;49.708;18.568;2023-12-20T11:17:22;9.05;;;2.30;;
31347;SDS011;21711;49.708;18.568;2023-12-20T11:22:24;3.10;;;1.63;;
31347;SDS011;21711;49.708;18.568;2023-12-20T11:24:55;3.22;;;1.75;;
31347;SDS011;21711;49.708;18.568;2023-12-20T11:27:40;2.75;;;1.40;;
31347;SDS011;21711;49.708;18.568;2023-12-20T11:30:15;3.10;;;1.55;;
31347;SDS011;21711;49.708;18.568;2023-12-20T11:32:43;4.32;;;1.90;;
31347;SDS011;21711;49.708;18.568;2023-12-20T11:37:40;3.83;;;1.55;;
31347;SDS011;21711;49.708;18.568;2023-12-20T11:40:12;3.13;;;1.60;;
31347;SDS011;21711;49.708;18.568;2023-12-20T11:42:50;3.78;;;1.55;;
31347;SDS011;21711;49.708;18.568;2023-12-20T11:45:24;5.13;;;2.70;;
31347;SDS011;21711;49.708;18.568;2023-12-20T11:47:56;4.45;;;2.10;;
31347;SDS011;21711;49.708;18.568;2023-12-20T11:50:25;9.05;;;3.70;;
31347;SDS011;21711;49.708;18.568;2023-12-20T11:52:53;8.00;;;3.08;;
31347;SDS011;21711;49.708;18.568;2023-12-20T11:55:22;6.60;;;2.85;;
31347;SDS011;21711;49.708;18.568;2023-12-20T11:57:53;7.57;;;3.10;;
31347;SDS011;21711;49.708;18.568;2023-12-20T12:00:20;6.20;;;2.90;;
31347;SDS011;21711;49.708;18.568;2023-12-20T12:02:55;6.38;;;2.70;;
31347;SDS011;21711;49.708;18.568;2023-12-20T12:05:24;7.13;;;3.08;;
31347;SDS011;21711;49.708;18.568;2023-12-20T12:07:52;5.97;;;2.58;;
31347;SDS011;21711;49.708;18.568;2023-12-20T12:10:21;5.28;;;2.38;;
31347;SDS011;21711;49.708;18.568;2023-12-20T12:12:49;5.35;;;2.78;;
31347;SDS011;21711;49.708;18.568;2023-12-20T12:15:17;6.18;;;2.90;;
31347;SDS011;21711;49.708;18.568;2023-12-20T12:17:52;6.10;;;2.75;;
31347;SDS011;21711;49.708;18.568;2023-12-20T12:20:23;4.90;;;2.65;;
31347;SDS011;21711;49.708;18.568;2023-12-20T12:23:01;4.38;;;2.67;;
31347;SDS011;21711;49.708;18.568;2023-12-20T12:25:31;5.57;;;2.65;;
31347;SDS011;21711;49.708;18.568;2023-12-20T12:28:06;4.57;;;2.58;;
31347;SDS011;21711;49.708;18.568;2023-12-20T12:30:33;4.53;;;2.58;;
31347;SDS011;21711;49.708;18.568;2023-12-20T12:33:11;5.95;;;3.15;;
31347;SDS011;21711;49.708;18.568;2023-12-20T12:35:40;4.35;;;2.63;;
31347;SDS011;21711;49.708;18.568;2023-12-20T12:38:07;5.63;;;3.20;;
31347;SDS011;21711;49.708;18.568;2023-12-20T12:40:35;4.63;;;2.80;;
31347;SDS011;21711;49.708;18.568;2023-12-20T12:43:03;8.80;;;3.88;;
31347;SDS011;21711;49.708;18.568;2023-12-20T12:45:32;12.95;;;3.78;;
31347;SDS011;21711;49.708;18.568;2023-12-20T12:47:59;7.75;;;3.70;;
31347;SDS011;21711;49.708;18.568;2023-12-20T12:50:27;6.80;;;3.78;;
31347;SDS011;21711;49.708;18.568;2023-12-20T12:52:55;7.95;;;4.10;;
31347;SDS011;21711;49.708;18.568;2023-12-20T12:55:22;5.68;;;3.33;;
31347;SDS011;21711;49.708;18.568;2023-12-20T12:57:50;6.72;;;3.47;;
31347;SDS011;21711;49.708;18.568;2023-12-20T13:00:18;6.38;;;3.67;;
31347;SDS011;21711;49.708;18.568;2023-12-20T13:02:46;9.32;;;3.53;;
31347;SDS011;21711;49.708;18.568;2023-12-20T13:05:13;6.53;;;3.20;;
31347;SDS011;21711;49.708;18.568;2023-12-20T13:07:41;5.85;;;3.67;;
31347;SDS011;21711;49.708;18.568;2023-12-20T13:10:12;7.85;;;3.92;;
31347;SDS011;21711;49.708;18.568;2023-12-20T13:12:43;4.63;;;3.00;;
31347;SDS011;21711;49.708;18.568;2023-12-20T13:15:10;6.57;;;3.55;;
31347;SDS011;21711;49.708;18.568;2023-12-20T13:17:38;6.82;;;3.15;;
31347;SDS011;21711;49.708;18.568;2023-12-20T13:20:07;5.95;;;3.25;;
31347;SDS011;21711;49.708;18.568;2023-12-20T13:22:35;4.63;;;3.30;;
31347;SDS011;21711;49.708;18.568;2023-12-20T13:25:03;6.22;;;3.22;;
31347;SDS011;21711;49.708;18.568;2023-12-20T13:27:30;6.75;;;3.95;;
31347;SDS011;21711;49.708;18.568;2023-12-20T13:29:59;7.35;;;3.38;;
31347;SDS011;21711;49.708;18.568;2023-12-20T13:32:26;7.75;;;3.38;;
31347;SDS011;21711;49.708;18.568;2023-12-20T13:34:54;6.07;;;3.25;;
31347;SDS011;21711;49.708;18.568;2023-12-20T13:37:22;6.32;;;3.47;;
31347;SDS011;21711;49.708;18.568;2023-12-20T13:39:50;6.65;;;4.22;;
31347;SDS011;21711;49.708;18.568;2023-12-20T13:42:17;5.57;;;3.28;;
31347;SDS011;21711;49.708;18.568;2023-12-20T13:44:44;6.10;;;3.08;;
31347;SDS011;21711;49.708;18.568;2023-12-20T13:47:12;5.93;;;3.47;;
31347;SDS011;21711;49.708;18.568;2023-12-20T13:49:39;5.75;;;3.28;;
31347;SDS011;21711;49.708;18.568;2023-12-20T13:52:06;4.88;;;2.88;;
31347;SDS011;21711;49.708;18.568;2023-12-20T13:54:34;5.30;;;3.00;;
31347;SDS011;21711;49.708;18.568;2023-12-20T13:57:01;4.47;;;2.60;;
31347;SDS011;21711;49.708;18.568;2023-12-20T13:59:42;5.13;;;2.80;;
31347;SDS011;21711;49.708;18.568;2023-12-20T14:02:09;4.47;;;2.50;;
31347;SDS011;21711;49.708;18.568;2023-12-20T14:04:37;4.13;;;2.75;;
31347;SDS011;21711;49.708;18.568;2023-12-20T14:07:10;4.15;;;2.53;;
31347;SDS011;21711;49.708;18.568;2023-12-20T14:09:39;4.03;;;2.23;;
31347;SDS011;21711;49.708;18.568;2023-12-20T14:12:13;5.60;;;2.30;;
31347;SDS011;21711;49.708;18.568;2023-12-20T14:14:41;5.78;;;2.80;;
31347;SDS011;21711;49.708;18.568;2023-12-20T14:17:08;3.33;;;2.58;;
31347;SDS011;21711;49.708;18.568;2023-12-20T14:19:36;3.53;;;2.17;;
31347;SDS011;21711;49.708;18.568;2023-12-20T14:22:03;3.13;;;2.13;;
31347;SDS011;21711;49.708;18.568;2023-12-20T14:24:31;3.78;;;2.42;;
31347;SDS011;21711;49.708;18.568;2023-12-20T14:26:59;5.40;;;2.30;;
31347;SDS011;21711;49.708;18.568;2023-12-20T14:29:26;4.97;;;2.72;;
31347;SDS011;21711;49.708;18.568;2023-12-20T14:31:53;5.15;;;2.42;;
31347;SDS011;21711;49.708;18.568;2023-12-20T14:34:21;5.82;;;2.88;;
31347;SDS011;21711;49.708;18.568;2023-12-20T14:36:51;4.28;;;2.45;;
31347;SDS011;21711;49.708;18.568;2023-12-20T14:39:19;4.10;;;2.38;;
31347;SDS011;21711;49.708;18.568;2023-12-20T14:41:47;4.57;;;2.97;;
31347;SDS011;21711;49.708;18.568;2023-12-20T14:44:14;4.35;;;2.58;;
31347;SDS011;21711;49.708;18.568;2023-12-20T14:46:43;3.67;;;1.95;;
31347;SDS011;21711;49.708;18.568;2023-12-20T14:49:11;4.78;;;2.60;;
31347;SDS011;21711;49.708;18.568;2023-12-20T14:51:39;5.88;;;2.95;;
31347;SDS011;21711;49.708;18.568;2023-12-20T14:56:37;4.68;;;2.65;;